Weldona, CO (80653)

3:48 AM MDT on April 28, 2017 (GMT -0600)
Mitchell Heights | | Change Station

Elev 4560 ft 40.32 °N, 103.84 °W | Updated 49 seconds ago

Partly Cloudy
Partly Cloudy
33.6 °F
Feels Like 31 °F
N
3.5
Wind Variable Wind from SW

Today
High -- | Low -- °F
--% Chance of Precip.
Yesterday
High -- | Low -- °F
Precip. -- in
Pressure 29.62 in
Visibility 0.5 miles
Clouds
Windchill 31 °F
Dew Point 33 °F
Humidity 99%
Rainfall 0.29 in
Snow Depth Not available.
5:58 AM 7:48 PM
Waxing Crescent, 5% visible
METAR KFMM 280935Z AUTO 26004KT 1/2SM FG VV005 00/00 A2962 RMK AO2 T00001002
Pressure 29.62 in
Visibility 0.5 miles
Clouds
Windchill 31 °F
Dew Point 33 °F
Humidity 99%
Rainfall 0.29 in
Snow Depth Not available.
5:58 AM 7:48 PM
Waxing Crescent, 5% visible
METAR KFMM 280935Z AUTO 26004KT 1/2SM FG VV005 00/00 A2962 RMK AO2 T00001002

Get Severe Weather Alerts

Thanks for signing up!

Be on the lookout for a verification email in your inbox.

You'll start receiving the daily forecast at 8 AM.

×

10-Day Weather Forecast

Almanac

Astronomy

Apr. 28, 2017 Rise Set
Actual Time
Civil Twilight
Nautical Twilight
Astronomical Twilight
Moon
Length of Visible Light
Length of Day
Tomorrow will be .
, % of the Moon is Illuminated

Today's Extremes

State Highs State Lows

Community

WunderPhotos

WunderBlog® & News

Nearby

Air Quality

  Air Quality AQ Index Pollutant
Not available.

Snow Depth

Station Depth Elevation

Earthquake Activity

City Distance Mag. Time & Date
Minimum magnitude displayed is 2.5.

Coastal Water Temperatures

Place Temperature

Stations

Nearby Weather Stations

Station Location Temp. Windchill Dew Point Humidity Wind Precip. Elev Updated Type
                   

Watches & Warnings

There are currently no watches in effect.